Time;durP1;ratioP1;P1;durP2;ratioP2;P2;SDS_P1;SDS_P2;PMS_P1;PMS_P2;Temp;Humidity;BMP_temperature;BMP_pressure;BME280_temperature;BME280_humidity;BME280_pressure;Samples;Min_cycle;Max_cycle;Signal;HPM_P1;HPM_P2
2022/01/09 00:00:01;;;;;;;94.68;61.30;;;;;;;12.60;81.17;100138.31;5046731;28;20095;-81
2022/01/09 00:02:26;;;;;;;70.13;40.83;;;;;;;12.62;81.30;100136.34;5047325;28;20021;-79
2022/01/09 00:04:52;;;;;;;43.60;22.20;;;;;;;12.59;81.71;100133.09;5044849;28;20075;-79
2022/01/09 00:07:18;;;;;;;39.13;21.08;;;;;;;12.54;82.36;100133.53;5047176;28;20029;-79
2022/01/09 00:09:44;;;;;;;38.35;22.65;;;;;;;12.57;82.19;100136.78;5047663;28;20035;-80
2022/01/09 00:12:11;;;;;;;35.28;18.63;;;;;;;12.56;81.18;100126.16;5045965;28;20021;-79
2022/01/09 00:14:37;;;;;;;35.08;18.02;;;;;;;12.52;81.28;100124.75;5044313;28;20031;-79
2022/01/09 00:17:03;;;;;;;36.78;20.88;;;;;;;12.55;81.15;100135.25;5043654;28;20056;-79
2022/01/09 00:19:29;;;;;;;32.38;18.75;;;;;;;12.52;81.11;100130.13;5046740;28;20059;-79
2022/01/09 00:21:55;;;;;;;52.67;20.23;;;;;;;12.46;80.74;100130.75;5043109;28;20409;-79
2022/01/09 00:24:20;;;;;;;34.00;19.15;;;;;;;12.40;81.51;100120.53;5046084;28;20029;-79
2022/01/09 00:26:46;;;;;;;43.60;19.58;;;;;;;12.26;81.12;100100.28;5039710;28;20033;-79
2022/01/09 00:29:11;;;;;;;37.22;22.20;;;;;;;12.43;82.13;100122.94;5043580;28;20111;-80
2022/01/09 00:31:46;;;;;;;40.97;20.70;;;;;;;12.36;82.36;100108.34;5039688;28;20018;-80
2022/01/09 00:34:11;;;;;;;36.17;18.88;;;;;;;12.39;82.34;100108.03;5028002;28;20017;-80
2022/01/09 00:36:37;;;;;;;38.83;18.42;;;;;;;12.43;82.40;100110.31;5024836;28;20021;-79
2022/01/09 00:39:03;;;;;;;37.97;19.85;;;;;;;12.41;82.77;100097.97;5047388;28;20024;-79
2022/01/09 00:41:28;;;;;;;37.22;20.42;;;;;;;12.45;82.38;100097.53;5043119;28;20116;-80
2022/01/09 00:43:54;;;;;;;41.67;21.83;;;;;;;12.43;81.77;100106.75;5035274;28;20427;-80
2022/01/09 00:46:19;;;;;;;47.95;23.80;;;;;;;12.43;81.96;100099.53;5040675;28;20029;-80
2022/01/09 00:48:45;;;;;;;40.30;19.00;;;;;;;12.43;82.02;100094.13;5018309;28;20045;-79
2022/01/09 00:51:10;;;;;;;36.47;17.55;;;;;;;12.44;81.43;100097.69;5033329;28;20379;-79
2022/01/09 00:53:36;;;;;;;37.00;17.45;;;;;;;12.39;81.96;100094.56;5041205;28;20032;-79
2022/01/09 00:56:01;;;;;;;38.17;18.33;;;;;;;12.43;82.21;100093.28;5039382;28;20025;-80
2022/01/09 00:58:27;;;;;;;34.08;19.60;;;;;;;12.47;82.01;100089.28;5042066;28;20037;-79
2022/01/09 01:00:53;;;;;;;36.58;18.02;;;;;;;12.47;81.72;100078.50;5040123;28;20085;-79
2022/01/09 01:03:19;;;;;;;42.22;18.08;;;;;;;12.43;82.10;100077.09;5043584;28;20030;-79
2022/01/09 01:05:45;;;;;;;34.65;17.52;;;;;;;12.45;82.37;100077.78;5049478;28;20111;-79
2022/01/09 01:08:10;;;;;;;39.95;20.52;;;;;;;12.30;81.92;100049.63;5047423;28;20025;-79
2022/01/09 01:10:36;;;;;;;42.45;19.77;;;;;;;12.50;82.29;100067.41;5044317;28;20021;-79
2022/01/09 01:13:02;;;;;;;39.88;21.27;;;;;;;12.53;82.80;100073.38;5047001;28;20426;-79
2022/01/09 01:15:28;;;;;;;50.75;25.15;;;;;;;12.50;82.81;100067.41;5040788;28;20025;-79
2022/01/09 01:17:53;;;;;;;59.25;28.42;;;;;;;12.56;83.06;100066.81;5044523;28;20055;-79
2022/01/09 01:20:21;;;;;;;68.68;32.58;;;;;;;12.60;83.05;100062.78;5040433;28;20048;-79
2022/01/09 01:22:49;;;;;;;63.63;31.65;;;;;;;12.57;82.11;100047.75;5044299;28;20491;-79
2022/01/09 01:25:15;;;;;;;66.38;32.20;;;;;;;12.56;82.04;100061.41;5036840;28;20104;-79
2022/01/09 01:27:40;;;;;;;64.45;31.80;;;;;;;12.59;81.89;100055.72;5040127;28;20109;-79
2022/01/09 01:30:08;;;;;;;53.97;29.50;;;;;;;12.45;82.29;100048.13;5043091;28;20021;-79
2022/01/09 01:32:33;;;;;;;53.47;28.77;;;;;;;12.54;81.80;100069.66;5044094;28;20017;-79
2022/01/09 01:34:59;;;;;;;53.45;28.02;;;;;;;12.50;82.25;100051.22;5041701;28;20031;-80
2022/01/09 01:37:25;;;;;;;56.35;31.20;;;;;;;12.55;82.38;100059.72;5043485;28;20028;-79
2022/01/09 01:39:51;;;;;;;64.93;30.45;;;;;;;12.62;82.82;100054.56;5042042;28;20490;-79
2022/01/09 01:42:17;;;;;;;52.40;27.27;;;;;;;12.58;82.44;100054.00;5043801;28;20029;-80
2022/01/09 01:44:47;;;;;;;53.63;27.98;;;;;;;12.50;81.90;100046.69;5044177;28;20024;-79
2022/01/09 01:47:15;;;;;;;69.93;35.25;;;;;;;12.46;82.11;100055.22;5039359;28;20104;-80
2022/01/09 01:49:40;;;;;;;47.42;29.67;;;;;;;12.40;81.95;100034.25;5044381;28;20074;-80
2022/01/09 01:52:08;;;;;;;49.38;27.75;;;;;;;12.43;82.56;100032.09;5041046;28;20071;-80
2022/01/09 01:54:34;;;;;;;48.03;26.98;;;;;;;12.56;82.21;100042.53;5036787;28;20026;-80
2022/01/09 01:57:00;;;;;;;51.80;28.05;;;;;;;12.54;82.03;100036.41;5035247;28;20037;-80
2022/01/09 01:59:25;;;;;;;45.47;24.98;;;;;;;12.55;82.28;100028.19;5039747;28;20415;-79
2022/01/09 02:01:51;;;;;;;44.50;23.67;;;;;;;12.47;81.45;100041.59;5043534;28;20032;-80
2022/01/09 02:04:16;;;;;;;40.47;23.35;;;;;;;12.51;81.17;100031.34;5041848;28;20178;-79
2022/01/09 02:06:42;;;;;;;47.42;25.52;;;;;;;12.43;82.13;100031.25;5042453;28;20454;-79
2022/01/09 02:09:08;;;;;;;37.85;22.88;;;;;;;12.53;82.20;100027.50;5043323;28;20035;-79
2022/01/09 02:11:34;;;;;;;37.90;22.02;;;;;;;12.60;81.81;100019.63;5043822;28;20029;-80
2022/01/09 02:13:59;;;;;;;39.90;23.58;;;;;;;12.54;81.84;100004.91;5051281;28;20106;-80
2022/01/09 02:16:26;;;;;;;37.05;23.80;;;;;;;12.55;81.60;100005.75;5037445;28;20068;-80
2022/01/09 02:18:51;;;;;;;48.80;27.73;;;;;;;12.55;81.40;100003.06;5035603;28;20021;-80
2022/01/09 02:21:17;;;;;;;44.05;25.85;;;;;;;12.62;81.50;100014.94;5036126;28;20083;-80
2022/01/09 02:23:47;;;;;;;38.13;23.05;;;;;;;12.62;81.42;100012.25;5039892;28;20109;-80
2022/01/09 02:26:20;;;;;;;40.95;24.20;;;;;;;12.49;80.93;100006.38;5049998;28;20439;-80
2022/01/09 02:28:47;;;;;;;43.78;22.80;;;;;;;12.50;80.35;100010.78;5043741;28;20098;-80
2022/01/09 02:31:13;;;;;;;42.80;23.88;;;;;;;12.46;81.21;100012.06;5046119;28;20059;-80
2022/01/09 02:33:40;;;;;;;34.88;20.92;;;;;;;12.36;81.22;100005.88;5040984;28;20087;-80
2022/01/09 02:36:05;;;;;;;36.97;19.90;;;;;;;12.15;81.95;99956.78;5034627;28;20034;-80
2022/01/09 02:38:31;;;;;;;33.33;21.20;;;;;;;12.34;81.66;99991.72;5028226;28;20453;-79
2022/01/09 02:40:56;;;;;;;38.75;22.42;;;;;;;12.35;81.60;100009.59;5044029;28;20132;-79
2022/01/09 02:43:23;;;;;;;41.35;22.35;;;;;;;12.31;81.26;100002.81;5040873;28;20018;-79
2022/01/09 02:45:58;;;;;;;42.35;23.35;;;;;;;12.15;81.43;99991.81;5043825;28;20155;-78
2022/01/09 02:48:23;;;;;;;36.33;22.65;;;;;;;12.31;82.29;99997.41;5040415;28;20040;-78
2022/01/09 02:51:31;;;;;;;37.75;23.02;;;;;;;12.32;82.51;99993.72;5040700;28;20514;-77
2022/01/09 02:53:39;;;;;;;34.08;20.20;;;;;;;12.32;82.23;99985.63;5023799;28;20118;-77
2022/01/09 02:56:06;;;;;;;31.80;19.42;;;;;;;12.30;82.59;99982.22;5020830;28;20384;-77
2022/01/09 02:58:33;;;;;;;40.42;22.98;;;;;;;12.31;82.93;99981.22;5022462;28;20067;-77
2022/01/09 03:01:00;;;;;;;32.60;20.20;;;;;;;12.18;82.67;99969.94;5041553;28;20040;-77
2022/01/09 03:03:25;;;;;;;34.50;20.95;;;;;;;12.27;82.75;99979.81;5041397;28;20017;-77
2022/01/09 03:05:51;;;;;;;37.67;21.35;;;;;;;12.26;82.60;99972.75;5034467;28;20029;-77
2022/01/09 03:08:16;;;;;;;35.05;21.70;;;;;;;12.25;82.68;99969.22;5041722;28;20052;-77
2022/01/09 03:10:42;;;;;;;38.30;20.05;;;;;;;12.24;82.47;99972.03;5040585;28;20098;-78
2022/01/09 03:13:08;;;;;;;43.20;22.80;;;;;;;12.32;82.17;99972.16;5040408;28;20471;-77
2022/01/09 03:15:34;;;;;;;43.25;22.35;;;;;;;12.32;82.30;99966.75;5043800;28;20460;-77
2022/01/09 03:18:00;;;;;;;36.28;21.50;;;;;;;12.36;82.40;99970.81;5042493;28;20049;-77
2022/01/09 03:20:27;;;;;;;35.40;22.48;;;;;;;12.32;81.85;99972.16;5044958;28;20445;-77
2022/01/09 03:22:54;;;;;;;46.42;24.00;;;;;;;12.31;81.85;99970.44;5045565;28;20040;-78
2022/01/09 03:25:24;;;;;;;35.80;22.27;;;;;;;12.30;81.40;99963.34;5047644;28;20476;-76
2022/01/09 03:27:50;;;;;;;35.70;21.73;;;;;;;12.28;81.47;99959.97;5044981;28;20032;-77
2022/01/09 03:30:18;;;;;;;40.10;21.70;;;;;;;12.21;82.16;99958.84;5055778;28;20210;-78
2022/01/09 03:32:43;;;;;;;38.53;21.83;;;;;;;12.19;81.88;99955.47;5054871;28;20075;-77
2022/01/09 03:35:12;;;;;;;41.88;21.38;;;;;;;12.11;82.41;99955.41;5053797;28;20451;-78
2022/01/09 03:37:39;;;;;;;47.67;24.23;;;;;;;12.20;82.27;99962.56;5040311;28;20026;-78
2022/01/09 03:40:07;;;;;;;35.95;20.85;;;;;;;12.24;82.95;99942.38;5013728;28;20025;-77
2022/01/09 03:42:33;;;;;;;37.95;23.20;;;;;;;12.26;83.07;99946.63;5013612;28;20021;-77
2022/01/09 03:44:59;;;;;;;37.15;23.05;;;;;;;12.31;83.32;99938.09;5014043;28;20045;-78
2022/01/09 03:47:24;;;;;;;36.40;20.63;;;;;;;12.29;82.43;99935.53;5013869;28;20021;-77
2022/01/09 03:49:50;;;;;;;33.33;21.20;;;;;;;12.30;82.54;99939.06;5014539;28;20029;-78
2022/01/09 03:52:16;;;;;;;32.55;21.45;;;;;;;12.27;82.03;99942.06;5015168;28;20026;-78
2022/01/09 03:54:42;;;;;;;43.42;22.38;;;;;;;12.25;82.47;99941.38;5018077;28;20506;-78
2022/01/09 03:57:07;;;;;;;35.22;21.83;;;;;;;12.27;82.27;99942.94;5034299;28;20116;-78
2022/01/09 03:59:33;;;;;;;32.92;21.75;;;;;;;12.30;82.48;99937.22;5034383;28;20025;-78
2022/01/09 04:01:58;;;;;;;31.95;20.52;;;;;;;12.25;82.10;99930.59;5035149;28;20096;-78
2022/01/09 04:04:24;;;;;;;40.97;21.02;;;;;;;12.27;81.50;99942.06;5019994;28;20419;-78
2022/01/09 04:06:50;;;;;;;30.00;18.27;;;;;;;12.24;81.76;99929.75;5014805;28;20076;-78
2022/01/09 04:09:26;;;;;;;27.02;17.85;;;;;;;12.22;81.23;99933.59;5014902;28;20029;-78
2022/01/09 04:11:56;;;;;;;31.08;19.23;;;;;;;12.26;81.27;99922.34;5015294;28;20018;-77
2022/01/09 04:14:21;;;;;;;29.83;17.88;;;;;;;12.26;81.15;99925.06;5015148;28;20394;-77
2022/01/09 04:16:47;;;;;;;28.90;16.42;;;;;;;12.25;80.63;99927.91;5014604;28;20041;-77
2022/01/09 04:19:13;;;;;;;28.63;18.15;;;;;;;12.20;80.90;99916.75;5014598;28;20072;-77
2022/01/09 04:21:41;;;;;;;33.90;18.50;;;;;;;12.27;81.48;99934.00;5018461;28;20030;-76
2022/01/09 04:24:06;;;;;;;33.95;19.75;;;;;;;12.23;81.42;99932.63;5034742;28;20029;-77
2022/01/09 04:26:32;;;;;;;29.60;17.42;;;;;;;12.13;81.63;99927.28;5034305;28;20029;-76
2022/01/09 04:28:57;;;;;;;34.13;18.48;;;;;;;12.19;81.13;99942.84;5034499;28;20029;-76
2022/01/09 04:31:22;;;;;;;32.05;20.77;;;;;;;12.19;80.63;99928.53;5026496;28;20530;-77
2022/01/09 04:33:48;;;;;;;32.45;19.05;;;;;;;12.19;80.55;99939.31;5014122;28;20469;-78
2022/01/09 04:36:13;;;;;;;33.90;19.75;;;;;;;12.18;80.41;99932.22;5018205;28;20052;-78
2022/01/09 04:38:39;;;;;;;33.97;21.27;;;;;;;12.13;81.41;99929.97;5034160;28;20025;-78
2022/01/09 04:41:04;;;;;;;31.83;20.42;;;;;;;12.12;80.97;99930.13;5034303;28;20467;-77
2022/01/09 04:43:30;;;;;;;35.25;20.08;;;;;;;12.11;81.56;99931.97;5034374;28;20368;-77
2022/01/09 04:45:55;;;;;;;34.47;20.38;;;;;;;12.09;81.79;99939.34;5032475;28;20060;-78
2022/01/09 04:48:21;;;;;;;57.00;26.17;;;;;;;12.11;81.41;99931.13;5014081;28;20026;-78
2022/01/09 04:50:47;;;;;;;56.28;26.83;;;;;;;12.02;81.91;99925.63;5014305;28;20101;-78
2022/01/09 04:53:13;;;;;;;55.25;24.45;;;;;;;12.01;81.41;99933.88;5014015;28;20030;-78
2022/01/09 04:55:41;;;;;;;55.53;27.13;;;;;;;12.07;82.16;99935.13;5014267;28;20191;-77
2022/01/09 04:58:09;;;;;;;58.67;25.80;;;;;;;12.06;81.96;99933.41;5014040;28;20112;-77
2022/01/09 05:00:34;;;;;;;54.95;25.98;;;;;;;11.98;82.26;99926.09;4995950;28;20021;-77
2022/01/09 05:03:00;;;;;;;65.03;24.75;;;;;;;11.90;82.42;99931.38;5013678;28;20032;-78
2022/01/09 05:05:26;;;;;;;53.28;25.83;;;;;;;11.83;82.69;99930.31;5023828;28;20025;-78
2022/01/09 05:07:51;;;;;;;63.58;27.75;;;;;;;11.86;83.44;99924.63;5015654;28;20025;-77
2022/01/09 05:10:17;;;;;;;63.67;28.40;;;;;;;11.84;83.81;99916.66;5033591;28;20095;-77
2022/01/09 05:12:42;;;;;;;63.10;28.15;;;;;;;11.82;83.79;99926.75;5031955;28;20072;-77
2022/01/09 05:15:10;;;;;;;63.80;27.42;;;;;;;11.83;83.01;99923.03;5013310;28;20159;-77
2022/01/09 05:17:35;;;;;;;57.33;27.08;;;;;;;11.75;83.99;99920.25;5013377;28;20050;-78
2022/01/09 05:20:02;;;;;;;65.43;26.25;;;;;;;11.77;84.09;99923.63;5013741;28;20053;-78
2022/01/09 05:22:28;;;;;;;60.38;25.80;;;;;;;11.81;84.38;99916.97;5014136;28;20521;-78
2022/01/09 05:24:55;;;;;;;57.65;27.45;;;;;;;11.84;84.96;99919.34;5032857;28;20037;-77
2022/01/09 05:27:22;;;;;;;53.92;26.33;;;;;;;11.79;84.61;99910.03;5034033;28;20056;-80
2022/01/09 05:29:47;;;;;;;52.58;26.02;;;;;;;11.82;84.29;99929.44;5033817;28;20040;-80
2022/01/09 05:32:13;;;;;;;56.97;22.77;;;;;;;11.77;84.25;99929.03;5033712;28;20030;-79
2022/01/09 05:34:38;;;;;;;68.82;26.10;;;;;;;11.70;83.64;99933.34;5033423;28;20041;-80
2022/01/09 05:37:04;;;;;;;79.10;29.60;;;;;;;11.66;84.92;99925.66;5033091;28;20029;-80
2022/01/09 05:39:31;;;;;;;71.80;31.40;;;;;;;11.62;84.69;99929.66;5034231;28;20075;-79
2022/01/09 05:41:58;;;;;;;78.70;33.08;;;;;;;11.66;85.28;99934.59;5033821;28;20025;-80
2022/01/09 05:44:23;;;;;;;75.20;31.15;;;;;;;11.63;85.36;99931.34;5034026;28;20017;-81
2022/01/09 05:46:49;;;;;;;69.50;29.50;;;;;;;11.74;85.81;99934.72;5033969;28;20041;-82
2022/01/09 05:49:14;;;;;;;42.20;21.02;;;;;;;11.70;85.39;99927.97;5032980;28;20087;-81
2022/01/09 05:51:40;;;;;;;46.83;21.00;;;;;;;11.66;84.97;99931.91;5033810;28;20048;-82
2022/01/09 05:54:05;;;;;;;41.88;21.95;;;;;;;11.64;84.47;99912.34;5033406;28;20482;-82
2022/01/09 05:56:31;;;;;;;48.83;24.23;;;;;;;11.75;83.45;99924.78;5030063;28;20050;-81
2022/01/09 05:58:56;;;;;;;57.80;24.25;;;;;;;11.77;84.23;99920.13;5016846;28;20032;-82
2022/01/09 06:01:22;;;;;;;60.05;27.67;;;;;;;11.82;83.52;99928.59;5013541;28;20443;-79
2022/01/09 06:03:47;;;;;;;53.50;32.28;;;;;;;11.72;83.27;99915.16;5014069;28;20025;-79
2022/01/09 06:06:13;;;;;;;55.60;26.73;;;;;;;11.81;83.19;99927.75;5027055;28;20029;-80
2022/01/09 06:08:38;;;;;;;46.63;24.95;;;;;;;11.85;82.77;99926.47;5016335;28;20034;-80
2022/01/09 06:11:03;;;;;;;49.28;25.25;;;;;;;11.88;83.57;99920.75;5020021;28;20059;-79
2022/01/09 06:13:29;;;;;;;49.97;24.92;;;;;;;11.80;83.53;99906.34;5042279;28;20052;-81
2022/01/09 06:15:54;;;;;;;50.50;24.55;;;;;;;11.93;83.21;99923.84;5033248;28;20037;-80
2022/01/09 06:18:21;;;;;;;49.10;25.60;;;;;;;11.87;82.96;99940.63;5041407;28;20045;-78
2022/01/09 06:20:50;;;;;;;52.22;25.17;;;;;;;11.94;82.88;99941.72;5041719;28;20040;-79
2022/01/09 06:23:19;;;;;;;43.60;22.73;;;;;;;11.87;83.26;99919.06;5038483;28;20399;-79
2022/01/09 06:25:46;;;;;;;48.17;21.45;;;;;;;11.89;83.50;99927.88;5039879;28;20101;-78
2022/01/09 06:28:12;;;;;;;39.92;22.50;;;;;;;12.06;82.71;99941.50;5034973;28;20029;-79
2022/01/09 06:30:37;;;;;;;57.70;23.48;;;;;;;11.99;81.97;99925.09;5031715;28;20029;-80
2022/01/09 06:33:03;;;;;;;41.20;22.27;;;;;;;12.05;81.86;99923.66;5038320;28;20083;-79
2022/01/09 06:35:28;;;;;;;46.35;21.40;;;;;;;12.09;80.95;99916.94;5036843;28;20037;-83
2022/01/09 06:37:54;;;;;;;31.50;19.90;;;;;;;12.08;79.97;99917.97;5053470;28;20035;-83
2022/01/09 06:40:19;;;;;;;37.45;22.92;;;;;;;12.14;80.03;99925.44;5052608;28;20024;-83
2022/01/09 06:42:45;;;;;;;44.38;21.27;;;;;;;12.09;79.93;99923.19;5035101;28;20032;-83
2022/01/09 06:45:12;;;;;;;31.33;16.65;;;;;;;12.09;79.54;99927.72;5052478;28;20037;-82
2022/01/09 06:47:37;;;;;;;24.85;16.55;;;;;;;12.04;78.71;99919.25;5033332;28;20017;-81
2022/01/09 06:50:03;;;;;;;32.20;18.23;;;;;;;11.99;78.82;99909.78;5034787;28;20407;-78
2022/01/09 06:52:29;;;;;;;33.45;19.92;;;;;;;12.13;79.43;99916.50;5036062;28;20033;-81
2022/01/09 06:54:54;;;;;;;49.55;31.85;;;;;;;12.06;78.95;99922.63;5017214;28;20025;-80
2022/01/09 06:57:20;;;;;;;40.97;23.02;;;;;;;12.13;79.06;99918.34;5016506;28;20391;-81
2022/01/09 06:59:45;;;;;;;31.95;20.90;;;;;;;12.06;79.55;99901.94;5016555;28;20037;-86
2022/01/09 07:02:11;;;;;;;37.65;25.60;;;;;;;12.12;78.27;99932.81;5019321;28;20452;-82
2022/01/09 07:04:36;;;;;;;32.13;19.90;;;;;;;11.97;78.41;99917.16;5028348;28;20097;-84
2022/01/09 07:07:02;;;;;;;26.45;18.63;;;;;;;11.98;78.60;99916.19;5030833;28;20058;-85
2022/01/09 07:09:27;;;;;;;26.73;16.95;;;;;;;11.94;78.38;99922.84;5018279;28;20041;-79
2022/01/09 07:11:53;;;;;;;24.00;16.42;;;;;;;11.87;78.64;99923.59;5020852;28;20048;-79
2022/01/09 07:14:18;;;;;;;26.80;18.23;;;;;;;11.83;78.53;99933.00;5036271;28;20041;-84
2022/01/09 07:16:44;;;;;;;27.58;18.02;;;;;;;11.75;78.66;99928.34;5035649;28;20049;-79
2022/01/09 07:19:09;;;;;;;30.50;17.10;;;;;;;11.71;79.36;99940.41;5035430;28;20033;-78
2022/01/09 07:21:35;;;;;;;37.55;25.48;;;;;;;11.70;78.67;99933.34;5033379;28;20376;-78
2022/01/09 07:24:00;;;;;;;24.20;16.13;;;;;;;11.69;79.08;99936.13;5035699;28;20450;-78
2022/01/09 07:26:25;;;;;;;30.23;18.35;;;;;;;11.68;79.08;99934.47;5035267;28;20367;-79
2022/01/09 07:28:51;;;;;;;24.35;15.50;;;;;;;11.64;79.04;99941.13;5032803;28;20376;-81
2022/01/09 07:31:17;;;;;;;23.98;14.90;;;;;;;11.67;79.36;99944.38;5035233;28;20025;-80
2022/01/09 07:33:42;;;;;;;24.05;16.35;;;;;;;11.74;80.01;99929.34;5035760;28;20044;-79
2022/01/09 07:36:08;;;;;;;24.83;16.73;;;;;;;11.87;79.25;99940.63;5036096;28;20031;-82
2022/01/09 07:38:34;;;;;;;29.88;15.82;;;;;;;11.90;78.92;99929.53;5016539;28;20057;-80
2022/01/09 07:40:59;;;;;;;16.75;12.00;;;;;;;11.96;79.16;99931.63;5029727;28;20071;-78
2022/01/09 07:43:25;;;;;;;19.42;13.07;;;;;;;12.00;78.83;99927.66;5018329;28;20117;-80
2022/01/09 07:45:50;;;;;;;17.38;12.73;;;;;;;12.02;78.74;99928.34;5015911;28;20030;-83
2022/01/09 07:48:16;;;;;;;15.43;10.20;;;;;;;11.96;78.17;99928.94;4997955;28;20060;-81
2022/01/09 07:50:41;;;;;;;17.75;13.13;;;;;;;11.93;77.39;99918.47;5015931;28;20120;-85
2022/01/09 07:53:07;;;;;;;19.73;13.70;;;;;;;11.93;78.04;99925.69;5025963;28;20452;-83
2022/01/09 07:55:32;;;;;;;17.25;10.50;;;;;;;11.82;77.51;99934.84;5035850;28;20048;-81
2022/01/09 07:57:58;;;;;;;15.80;11.50;;;;;;;11.76;77.86;99932.75;5034863;28;20032;-82
2022/01/09 08:00:23;;;;;;;19.20;12.95;;;;;;;11.75;78.34;99933.72;5029220;28;20055;-86
2022/01/09 08:02:51;;;;;;;21.10;13.65;;;;;;;11.79;78.70;99945.06;5034752;28;20040;-80
2022/01/09 08:05:17;;;;;;;19.25;13.75;;;;;;;11.79;78.20;99940.53;5034877;28;20036;-80
2022/01/09 08:07:43;;;;;;;23.15;14.70;;;;;;;11.75;78.40;99947.19;5035304;28;20048;-84
2022/01/09 08:10:09;;;;;;;23.65;14.85;;;;;;;11.70;78.49;99927.09;5033800;28;20037;-79
2022/01/09 08:12:36;;;;;;;19.58;13.98;;;;;;;11.76;78.69;99926.50;5034513;28;20108;-79
2022/01/09 08:15:01;;;;;;;20.85;11.48;;;;;;;11.64;78.38;99933.06;5034244;28;20098;-83
2022/01/09 08:17:26;;;;;;;25.00;13.35;;;;;;;11.45;78.76;99897.13;5015287;28;20054;-82
2022/01/09 08:19:52;;;;;;;20.52;13.38;;;;;;;11.56;79.51;99908.72;5016521;28;20457;-78
2022/01/09 08:22:17;;;;;;;25.85;13.32;;;;;;;11.53;79.50;99904.44;5032183;28;20037;-80
2022/01/09 08:24:43;;;;;;;29.63;14.48;;;;;;;11.58;79.33;99896.78;5034557;28;20056;-78
2022/01/09 08:27:09;;;;;;;21.55;15.52;;;;;;;11.63;79.92;99905.25;5034866;28;20038;-76
2022/01/09 08:29:37;;;;;;;21.42;13.40;;;;;;;11.64;79.47;99890.81;5034527;28;20033;-80
2022/01/09 08:32:03;;;;;;;24.40;15.05;;;;;;;11.64;79.58;99877.34;5015874;28;20053;-77
2022/01/09 08:34:29;;;;;;;24.02;15.13;;;;;;;11.56;79.22;99871.84;5014901;28;20060;-78
2022/01/09 08:36:54;;;;;;;24.88;15.98;;;;;;;11.67;79.67;99885.13;5037683;28;20029;-79
2022/01/09 08:39:20;;;;;;;26.40;17.63;;;;;;;11.68;79.83;99881.41;5035053;28;20021;-77
2022/01/09 08:41:45;;;;;;;24.27;15.70;;;;;;;11.60;79.37;99873.25;5033008;28;20033;-80
2022/01/09 08:44:11;;;;;;;28.52;19.35;;;;;;;11.68;80.10;99880.59;5034000;28;20082;-78
2022/01/09 08:46:38;;;;;;;29.92;17.38;;;;;;;11.73;80.14;99879.16;5034430;28;20029;-77
2022/01/09 08:49:04;;;;;;;30.02;18.73;;;;;;;11.85;80.25;99867.19;5041839;28;20030;-76
2022/01/09 08:51:30;;;;;;;27.88;17.98;;;;;;;11.86;80.41;99868.84;5034085;28;20048;-80
2022/01/09 08:53:57;;;;;;;27.45;16.50;;;;;;;11.81;79.49;99862.22;5034320;28;20059;-78
2022/01/09 08:56:26;;;;;;;33.40;17.50;;;;;;;11.87;79.63;99867.88;5034280;28;20033;-78
2022/01/09 08:58:54;;;;;;;31.45;17.55;;;;;;;11.95;80.08;99846.41;5033643;28;20085;-77
2022/01/09 09:01:20;;;;;;;25.55;16.52;;;;;;;11.95;79.81;99835.66;5029290;28;20088;-79
2022/01/09 09:03:45;;;;;;;32.85;18.10;;;;;;;12.10;79.42;99845.88;5034175;28;20487;-78
2022/01/09 09:06:13;;;;;;;32.35;16.88;;;;;;;12.06;78.63;99836.41;5034225;28;20483;-76
2022/01/09 09:08:39;;;;;;;23.65;13.98;;;;;;;12.06;78.73;99841.78;5034709;28;20025;-79
2022/01/09 09:11:07;;;;;;;21.73;11.77;;;;;;;11.99;78.93;99831.63;5041999;28;20032;-76
2022/01/09 09:13:33;;;;;;;22.60;14.88;;;;;;;11.97;78.97;99841.72;5014057;28;20026;-77
2022/01/09 09:15:59;;;;;;;41.03;24.83;;;;;;;11.87;78.88;99808.59;5027614;28;20033;-76
2022/01/09 09:18:24;;;;;;;27.98;16.55;;;;;;;12.05;79.07;99824.75;5025801;28;20466;-78
2022/01/09 09:20:50;;;;;;;24.75;17.08;;;;;;;12.15;79.07;99830.06;5013897;28;20088;-77
2022/01/09 09:23:15;;;;;;;26.88;17.55;;;;;;;12.13;79.38;99837.47;5013840;28;20458;-75
2022/01/09 09:25:41;;;;;;;31.30;17.67;;;;;;;12.18;79.01;99821.69;5013781;28;20026;-79
2022/01/09 09:28:06;;;;;;;26.90;18.98;;;;;;;12.32;78.70;99832.75;5013843;28;20026;-78
2022/01/09 09:30:32;;;;;;;27.55;18.20;;;;;;;12.33;78.81;99829.06;5013711;28;20491;-81
2022/01/09 09:32:58;;;;;;;30.95;18.38;;;;;;;12.37;78.81;99818.81;5013732;28;20037;-80
2022/01/09 09:35:23;;;;;;;28.33;17.60;;;;;;;12.46;78.97;99817.91;5013650;28;20112;-81
2022/01/09 09:37:49;;;;;;;28.73;18.17;;;;;;;12.46;78.21;99823.28;4996168;28;20091;-79
2022/01/09 09:40:15;;;;;;;27.70;17.08;;;;;;;12.50;77.79;99811.19;5014464;28;20444;-78
2022/01/09 09:42:40;;;;;;;24.38;16.67;;;;;;;12.57;77.82;99798.75;5013468;28;20096;-83
2022/01/09 09:45:08;;;;;;;30.00;17.70;;;;;;;12.71;77.50;99811.69;5014125;28;20038;-79
2022/01/09 09:47:35;;;;;;;24.80;15.60;;;;;;;12.80;77.68;99812.56;5013389;28;20407;-80
2022/01/09 09:50:03;;;;;;;22.45;15.00;;;;;;;12.81;76.75;99816.97;5013861;28;20120;-81
2022/01/09 09:52:28;;;;;;;30.42;17.10;;;;;;;12.81;76.51;99819.69;4996111;28;20032;-80
2022/01/09 09:54:54;;;;;;;21.30;14.40;;;;;;;12.77;76.40;99816.44;5013794;28;20029;-81
2022/01/09 09:57:21;;;;;;;28.15;16.17;;;;;;;12.78;76.56;99810.03;5013211;28;20492;-81
2022/01/09 09:59:46;;;;;;;25.90;16.15;;;;;;;12.63;76.75;99808.91;5013227;28;20037;-81
2022/01/09 10:02:17;;;;;;;33.00;17.35;;;;;;;12.59;77.21;99817.50;5013074;28;20029;-83
2022/01/09 10:05:05;;;;;;;24.67;15.27;;;;;;;12.61;77.08;99813.63;5013702;28;20259;-78
2022/01/09 10:07:30;;;;;;;34.22;22.10;;;;;;;12.62;77.77;99807.22;5013492;28;20037;-81
2022/01/09 10:10:03;;;;;;;41.58;24.33;;;;;;;12.55;77.31;99796.22;5016414;28;20029;-79
2022/01/09 10:12:31;;;;;;;42.78;25.30;;;;;;;12.71;78.16;99806.28;5033177;28;20192;-81
2022/01/09 10:14:59;;;;;;;40.40;25.05;;;;;;;12.75;78.22;99813.03;5033213;28;20029;-80
2022/01/09 10:17:26;;;;;;;34.47;22.50;;;;;;;12.79;78.66;99806.31;5044388;28;20045;-79
2022/01/09 10:19:57;;;;;;;42.55;22.63;;;;;;;12.75;78.31;99794.16;5053040;28;20029;-81
2022/01/09 10:22:33;;;;;;;31.08;21.05;;;;;;;12.82;78.24;99792.50;5052668;28;20056;-79
2022/01/09 10:25:37;;;;;;;31.13;20.92;;;;;;;12.90;78.26;99800.66;5019505;28;20166;-81
2022/01/09 10:28:12;;;;;;;32.35;21.10;;;;;;;12.95;77.68;99786.69;5027929;28;20033;-81
2022/01/09 10:30:43;;;;;;;31.67;22.65;;;;;;;12.75;76.51;99790.63;5020918;28;20029;-78
2022/01/09 10:33:18;;;;;;;35.05;23.30;;;;;;;12.85;77.33;99781.41;5022977;28;20506;-78
2022/01/09 10:35:46;;;;;;;31.23;20.95;;;;;;;12.78;77.61;99774.94;5027980;28;20033;-83
2022/01/09 10:38:27;;;;;;;39.08;24.48;;;;;;;12.91;78.20;99788.84;5029028;28;20037;-77
2022/01/09 10:41:02;;;;;;;33.97;22.15;;;;;;;12.91;78.51;99780.75;5031834;28;20029;-79
2022/01/09 10:43:41;;;;;;;28.92;19.10;;;;;;;13.00;78.02;99785.19;5006054;28;20031;-80
2022/01/09 10:46:09;;;;;;;33.90;21.80;;;;;;;13.03;78.08;99767.81;5027580;28;20042;-78
2022/01/09 10:48:41;;;;;;;24.58;17.13;;;;;;;13.05;77.92;99772.09;5020356;28;20084;-78
2022/01/09 10:51:10;;;;;;;31.63;20.20;;;;;;;13.00;77.61;99763.59;5021967;28;20484;-77
2022/01/09 10:53:40;;;;;;;32.10;22.48;;;;;;;13.03;77.47;99763.28;5031910;28;20047;-79
2022/01/09 10:56:07;;;;;;;32.60;22.23;;;;;;;13.07;77.74;99758.41;5013718;28;20471;-80
2022/01/09 10:58:58;;;;;;;34.92;23.27;;;;;;;12.99;77.26;99748.44;5032370;28;20025;-80
2022/01/09 11:01:27;;;;;;;34.67;22.70;;;;;;;13.10;77.71;99752.72;5031918;28;20125;-79
2022/01/09 11:04:12;;;;;;;32.03;21.70;;;;;;;13.14;77.63;99747.84;5036340;28;20029;-80
2022/01/09 11:06:43;;;;;;;33.97;21.58;;;;;;;13.20;76.77;99752.59;5040283;28;20170;-82
2022/01/09 11:09:08;;;;;;;30.50;20.70;;;;;;;13.17;76.64;99742.97;5037772;28;20029;-82
2022/01/09 11:11:37;;;;;;;34.25;21.27;;;;;;;13.05;76.44;99710.00;5032711;28;20095;-82